Time;durP1;ratioP1;P1;durP2;ratioP2;P2;SDS_P1;SDS_P2;PMS_P1;PMS_P2;Temp;Humidity;BMP_temperature;BMP_pressure;BME280_temperature;BME280_humidity;BME280_pressure;Samples;Min_cycle;Max_cycle;Signal;HPM_P1;HPM_P2
2022/07/10 00:02:18;;;;;;;3.03;1.57;;;16.30;99.90;;;;;;5074257;28;20448;-58
2022/07/10 00:04:46;;;;;;;2.40;0.90;;;16.20;99.90;;;;;;5074188;28;20447;-58
2022/07/10 00:07:13;;;;;;;5.40;1.53;;;16.20;99.90;;;;;;5074003;28;20490;-58
2022/07/10 00:09:39;;;;;;;3.60;1.60;;;16.20;99.90;;;;;;5073920;28;20447;-58
2022/07/10 00:12:06;;;;;;;5.50;1.33;;;16.00;99.90;;;;;;5073855;28;20546;-58
2022/07/10 00:14:33;;;;;;;4.20;1.40;;;16.10;99.90;;;;;;5074061;28;20451;-57
2022/07/10 00:16:59;;;;;;;2.50;1.20;;;16.00;99.90;;;;;;5073978;28;20546;-57
2022/07/10 00:19:26;;;;;;;4.73;1.00;;;16.00;99.90;;;;;;5073813;28;20447;-58
2022/07/10 00:21:54;;;;;;;3.40;1.50;;;15.90;99.90;;;;;;5073959;28;20542;-58
2022/07/10 00:24:20;;;;;;;5.87;1.10;;;15.90;99.90;;;;;;5073593;28;20454;-59
2022/07/10 00:26:47;;;;;;;6.40;1.23;;;15.90;99.90;;;;;;5073738;28;20490;-59
2022/07/10 00:29:14;;;;;;;4.57;1.40;;;15.90;99.90;;;;;;5073494;28;20451;-59
2022/07/10 00:31:40;;;;;;;2.50;1.00;;;15.90;99.90;;;;;;5073677;28;20453;-59
2022/07/10 00:34:07;;;;;;;2.90;0.80;;;15.80;99.90;;;;;;5073673;28;20454;-59
2022/07/10 00:36:33;;;;;;;4.80;1.33;;;15.90;99.90;;;;;;5073503;28;20789;-59
2022/07/10 00:39:01;;;;;;;5.03;1.00;;;15.80;99.90;;;;;;5073350;28;20444;-59
2022/07/10 00:41:27;;;;;;;2.27;1.00;;;15.80;99.90;;;;;;5073538;28;20530;-59
2022/07/10 00:43:55;;;;;;;3.23;1.23;;;15.90;99.90;;;;;;5073487;28;20450;-59
2022/07/10 00:46:22;;;;;;;4.43;1.60;;;15.90;99.90;;;;;;5073184;28;20997;-59
2022/07/10 00:48:48;;;;;;;3.47;1.43;;;15.90;99.90;;;;;;5073308;28;20454;-59
2022/07/10 00:51:16;;;;;;;6.63;1.37;;;15.90;99.90;;;;;;5073232;28;20447;-59
2022/07/10 00:53:45;;;;;;;4.97;2.03;;;15.80;99.90;;;;;;5073207;28;20447;-59
2022/07/10 00:56:14;;;;;;;3.27;1.10;;;15.90;99.90;;;;;;5073153;28;20571;-58
2022/07/10 00:58:41;;;;;;;6.43;1.23;;;15.90;99.90;;;;;;5073307;28;20447;-59
2022/07/10 01:01:08;;;;;;;4.87;0.93;;;15.90;99.90;;;;;;5073147;28;20454;-59
2022/07/10 01:03:34;;;;;;;4.13;1.17;;;15.90;99.90;;;;;;5073072;28;20451;-59
2022/07/10 01:06:01;;;;;;;1.70;1.03;;;15.90;99.90;;;;;;5072883;28;20507;-59
2022/07/10 01:08:28;;;;;;;4.00;1.30;;;15.90;99.90;;;;;;5073170;28;20448;-58
2022/07/10 01:10:54;;;;;;;4.43;1.10;;;15.90;99.90;;;;;;5073078;28;20454;-59
2022/07/10 01:13:23;;;;;;;3.93;1.20;;;15.90;99.90;;;;;;5072931;28;20447;-59
2022/07/10 01:15:49;;;;;;;3.10;1.60;;;15.90;99.90;;;;;;5072884;28;20939;-59
2022/07/10 01:18:16;;;;;;;5.43;1.40;;;15.90;99.90;;;;;;5072872;28;20447;-60
2022/07/10 01:20:43;;;;;;;3.20;1.40;;;15.90;99.90;;;;;;5072847;28;20490;-59
2022/07/10 01:23:11;;;;;;;3.10;0.90;;;15.90;99.90;;;;;;5072986;28;20453;-59
2022/07/10 01:25:37;;;;;;;2.20;1.07;;;15.90;99.90;;;;;;5072782;28;20466;-59
2022/07/10 01:28:05;;;;;;;3.30;1.03;;;15.90;99.90;;;;;;5072764;28;20852;-59
2022/07/10 01:30:32;;;;;;;3.33;1.10;;;15.90;99.90;;;;;;5072686;28;20960;-59
2022/07/10 01:32:58;;;;;;;6.30;1.20;;;15.90;99.90;;;;;;5072686;28;20896;-60
2022/07/10 01:35:25;;;;;;;3.40;1.43;;;15.90;99.90;;;;;;5072594;28;20453;-59
2022/07/10 01:37:51;;;;;;;4.37;1.20;;;15.80;99.90;;;;;;5072784;28;20458;-59
2022/07/10 01:40:19;;;;;;;3.73;1.13;;;15.90;99.90;;;;;;5072702;28;20538;-59
2022/07/10 01:42:46;;;;;;;2.87;1.00;;;15.90;99.90;;;;;;5075475;28;20454;-59
2022/07/10 01:45:13;;;;;;;2.77;1.03;;;15.80;99.90;;;;;;5076815;28;20802;-59
2022/07/10 01:47:39;;;;;;;7.43;1.20;;;15.80;99.90;;;;;;5076710;28;20574;-59
2022/07/10 01:50:07;;;;;;;7.90;1.20;;;15.70;99.90;;;;;;5076903;28;20815;-59
2022/07/10 01:52:33;;;;;;;2.50;1.20;;;15.80;99.90;;;;;;5076763;28;20458;-59
2022/07/10 01:55:00;;;;;;;2.80;1.20;;;15.80;99.90;;;;;;5076707;28;20856;-59
2022/07/10 01:57:28;;;;;;;4.23;1.40;;;15.80;99.90;;;;;;5076420;28;20521;-59
2022/07/10 01:59:54;;;;;;;3.47;1.00;;;15.80;99.90;;;;;;5076407;28;20450;-59
2022/07/10 02:02:21;;;;;;;4.80;2.10;;;15.80;99.90;;;;;;5076270;28;20752;-59
2022/07/10 02:04:47;;;;;;;4.83;1.10;;;15.70;99.90;;;;;;5076546;28;20459;-59
2022/07/10 02:07:14;;;;;;;4.03;1.40;;;15.70;99.90;;;;;;5076357;28;20533;-59
2022/07/10 02:09:42;;;;;;;1.97;1.20;;;15.70;99.90;;;;;;5076470;28;20587;-59
2022/07/10 02:12:09;;;;;;;4.93;1.10;;;15.60;99.90;;;;;;5076258;28;20474;-59
2022/07/10 02:14:38;;;;;;;5.10;1.00;;;15.60;99.90;;;;;;5076080;28;20534;-59
2022/07/10 02:17:05;;;;;;;1.93;1.10;;;15.60;99.90;;;;;;5076561;28;20447;-59
2022/07/10 02:19:32;;;;;;;5.40;1.43;;;15.50;99.90;;;;;;5076186;28;20444;-59
2022/07/10 02:21:58;;;;;;;2.93;1.10;;;15.50;99.90;;;;;;5076151;28;20439;-59
2022/07/10 02:24:25;;;;;;;3.50;1.07;;;15.50;99.90;;;;;;5076030;28;20447;-59
2022/07/10 02:26:52;;;;;;;1.07;0.90;;;15.60;99.90;;;;;;5075900;28;20524;-59
2022/07/10 02:29:19;;;;;;;5.10;1.00;;;15.60;99.90;;;;;;5075807;28;20462;-59
2022/07/10 02:31:47;;;;;;;6.90;1.73;;;15.60;99.90;;;;;;5076061;28;20520;-59
2022/07/10 02:34:14;;;;;;;2.80;0.87;;;15.60;99.90;;;;;;5075957;28;20443;-59
2022/07/10 02:36:40;;;;;;;3.53;1.17;;;15.60;99.90;;;;;;5075843;28;20455;-59
2022/07/10 02:39:08;;;;;;;3.23;1.00;;;15.60;99.90;;;;;;5075822;28;20915;-59
2022/07/10 02:41:35;;;;;;;3.10;1.20;;;15.60;99.90;;;;;;5075670;28;20458;-59
2022/07/10 02:44:02;;;;;;;3.30;1.20;;;15.50;99.90;;;;;;5075555;28;20542;-59
2022/07/10 02:46:28;;;;;;;6.40;1.30;;;15.50;99.90;;;;;;5075656;28;20496;-59
2022/07/10 02:48:57;;;;;;;5.10;0.93;;;15.60;99.90;;;;;;5075656;28;20810;-59
2022/07/10 02:51:23;;;;;;;2.17;0.80;;;15.60;99.90;;;;;;5075597;28;20455;-59
2022/07/10 02:53:50;;;;;;;4.20;1.07;;;15.60;99.90;;;;;;5075448;28;20447;-59
2022/07/10 02:56:16;;;;;;;3.43;1.00;;;15.60;99.90;;;;;;5075238;28;20554;-59
2022/07/10 02:58:43;;;;;;;6.77;1.00;;;15.60;99.90;;;;;;5075356;28;20842;-59
2022/07/10 03:01:09;;;;;;;4.77;1.10;;;15.60;99.90;;;;;;5075437;28;20479;-58
2022/07/10 03:03:36;;;;;;;3.53;0.90;;;15.60;99.90;;;;;;5075378;28;20442;-59
2022/07/10 03:06:04;;;;;;;3.03;1.07;;;15.60;99.90;;;;;;5075359;28;20541;-59
2022/07/10 03:08:31;;;;;;;2.33;1.00;;;15.60;99.90;;;;;;5075158;28;20472;-59
2022/07/10 03:10:57;;;;;;;2.07;0.97;;;15.60;99.90;;;;;;5075174;28;20810;-59
2022/07/10 03:13:24;;;;;;;4.10;1.07;;;15.60;99.90;;;;;;5075285;28;20446;-59
2022/07/10 03:15:54;;;;;;;3.00;0.90;;;15.50;99.90;;;;;;5075191;28;20455;-59
2022/07/10 03:18:20;;;;;;;2.50;0.80;;;15.50;99.90;;;;;;5075149;28;20451;-59
2022/07/10 03:20:46;;;;;;;3.77;1.20;;;15.40;99.90;;;;;;5074990;28;20449;-59
2022/07/10 03:23:14;;;;;;;4.83;0.87;;;15.40;99.90;;;;;;5074953;28;20458;-59
2022/07/10 03:25:41;;;;;;;5.23;0.90;;;15.30;99.90;;;;;;5074777;28;20447;-59
2022/07/10 03:28:07;;;;;;;4.00;1.40;;;15.40;99.90;;;;;;5074930;28;20483;-60
2022/07/10 03:30:34;;;;;;;2.53;0.87;;;15.40;99.90;;;;;;5074886;28;20447;-59
2022/07/10 03:33:02;;;;;;;2.03;0.80;;;15.30;99.90;;;;;;5074900;28;20810;-59
2022/07/10 03:35:31;;;;;;;2.90;0.90;;;15.40;99.90;;;;;;5074728;28;20454;-59
2022/07/10 03:37:57;;;;;;;3.73;1.17;;;15.40;99.90;;;;;;5074673;28;20482;-60
2022/07/10 03:40:26;;;;;;;2.17;1.10;;;15.40;99.90;;;;;;5074612;28;20447;-59
2022/07/10 03:42:52;;;;;;;4.50;1.00;;;15.30;99.90;;;;;;5074643;28;20448;-59
2022/07/10 03:45:19;;;;;;;1.70;0.90;;;15.30;99.90;;;;;;5074616;28;20443;-58
2022/07/10 03:47:45;;;;;;;2.00;1.00;;;15.30;99.90;;;;;;5074414;28;20515;-59
2022/07/10 03:50:12;;;;;;;1.43;0.80;;;15.40;99.90;;;;;;5074467;28;20440;-59
2022/07/10 03:52:38;;;;;;;2.90;1.00;;;15.30;99.90;;;;;;5074269;28;20447;-59
2022/07/10 03:55:06;;;;;;;2.97;1.00;;;15.40;99.90;;;;;;5074486;28;20452;-58
2022/07/10 04:00:18;;;;;;;1.50;0.90;;;15.40;99.90;;;;;;5074262;28;20501;-59
2022/07/10 04:02:44;;;;;;;1.20;0.90;;;15.40;99.90;;;;;;5074255;28;20542;-59
2022/07/10 04:05:11;;;;;;;1.70;0.77;;;15.30;99.90;;;;;;5073472;28;21025;-59
2022/07/10 04:07:37;;;;;;;3.27;1.07;;;15.30;99.90;;;;;;5073859;28;21001;-59
2022/07/10 04:10:05;;;;;;;2.10;1.20;;;15.20;99.90;;;;;;5074143;28;20454;-59
2022/07/10 04:12:31;;;;;;;2.60;1.07;;;15.30;99.90;;;;;;5074024;28;20453;-59
2022/07/10 04:14:59;;;;;;;7.13;1.23;;;15.30;99.90;;;;;;5074004;28;20577;-59
2022/07/10 04:17:26;;;;;;;4.87;1.00;;;15.30;99.90;;;;;;5073737;28;20455;-59
2022/07/10 04:19:52;;;;;;;1.60;1.10;;;15.10;99.90;;;;;;5073736;28;20448;-59
2022/07/10 04:22:18;;;;;;;4.13;0.97;;;15.20;99.90;;;;;;5073958;28;20453;-57
2022/07/10 04:24:45;;;;;;;2.53;0.90;;;15.20;99.90;;;;;;5073896;28;20881;-59
2022/07/10 04:27:11;;;;;;;4.50;1.10;;;15.30;99.90;;;;;;5073666;28;20574;-59
2022/07/10 04:29:38;;;;;;;1.93;0.70;;;15.40;99.90;;;;;;5073596;28;20454;-59
2022/07/10 04:32:07;;;;;;;2.97;1.27;;;15.50;99.90;;;;;;5073591;28;20791;-59
2022/07/10 04:34:33;;;;;;;3.63;1.70;;;15.50;99.90;;;;;;5073498;28;20448;-59
2022/07/10 04:37:00;;;;;;;2.70;1.00;;;15.50;99.90;;;;;;5073649;28;20435;-59
2022/07/10 04:39:26;;;;;;;1.30;0.80;;;15.60;99.90;;;;;;5073551;28;20998;-59
2022/07/10 04:41:53;;;;;;;3.20;1.17;;;15.50;99.90;;;;;;5073477;28;20471;-59
2022/07/10 04:44:20;;;;;;;3.23;1.07;;;15.50;99.90;;;;;;5073355;28;21004;-59
2022/07/10 04:46:47;;;;;;;5.00;1.13;;;15.60;99.90;;;;;;5073132;28;20994;-59
2022/07/10 04:49:15;;;;;;;1.60;0.87;;;15.70;99.90;;;;;;5073217;28;21001;-59
2022/07/10 04:51:42;;;;;;;3.63;1.20;;;15.60;99.90;;;;;;5073461;28;21013;-59
2022/07/10 04:54:08;;;;;;;4.10;1.03;;;15.60;99.90;;;;;;5073203;28;20455;-59
2022/07/10 04:56:34;;;;;;;3.37;1.10;;;15.60;99.90;;;;;;5073080;28;20475;-59
2022/07/10 04:59:01;;;;;;;1.97;0.80;;;15.50;99.90;;;;;;5073032;28;20519;-59
2022/07/10 05:01:28;;;;;;;4.10;1.30;;;15.60;99.90;;;;;;5073005;28;20454;-58
2022/07/10 05:03:55;;;;;;;2.27;0.90;;;15.50;99.90;;;;;;5073178;28;20447;-59
2022/07/10 05:06:23;;;;;;;2.60;0.87;;;15.50;99.90;;;;;;5073153;28;20874;-59
2022/07/10 05:08:49;;;;;;;2.63;1.10;;;15.50;99.90;;;;;;5073041;28;20489;-59
2022/07/10 05:11:16;;;;;;;2.27;1.07;;;15.50;99.90;;;;;;5072935;28;20483;-58
2022/07/10 05:13:45;;;;;;;2.93;0.90;;;15.50;99.90;;;;;;5072944;28;20447;-59
2022/07/10 05:16:12;;;;;;;3.30;1.00;;;15.40;99.90;;;;;;5071950;28;20946;-59
2022/07/10 05:18:39;;;;;;;2.63;1.10;;;15.50;99.90;;;;;;5073083;28;20454;-60
2022/07/10 05:21:06;;;;;;;3.57;1.73;;;15.60;99.90;;;;;;5072958;28;20453;-59
2022/07/10 05:23:34;;;;;;;3.60;1.10;;;15.60;99.90;;;;;;5072906;28;20938;-58
2022/07/10 05:26:00;;;;;;;1.60;1.10;;;15.60;99.90;;;;;;5072811;28;20494;-59
2022/07/10 05:28:27;;;;;;;2.97;1.30;;;15.70;99.90;;;;;;5072636;28;20907;-59
2022/07/10 05:30:53;;;;;;;2.30;1.13;;;15.80;99.90;;;;;;5072698;28;21000;-59
2022/07/10 05:33:20;;;;;;;3.03;1.20;;;15.90;99.90;;;;;;5072880;28;20961;-57
2022/07/10 05:35:46;;;;;;;3.83;1.10;;;15.90;99.90;;;;;;5072757;28;20539;-59
2022/07/10 05:38:13;;;;;;;4.70;1.30;;;16.00;99.90;;;;;;5072661;28;20448;-59
2022/07/10 05:40:41;;;;;;;2.30;1.30;;;15.90;99.90;;;;;;5072663;28;20447;-59
2022/07/10 05:43:07;;;;;;;3.80;1.27;;;15.80;99.90;;;;;;5072545;28;20451;-59
2022/07/10 05:45:34;;;;;;;2.20;0.90;;;15.80;99.90;;;;;;5072761;28;20450;-59
2022/07/10 05:48:00;;;;;;;2.03;0.80;;;15.70;99.90;;;;;;5072636;28;20497;-59
2022/07/10 05:50:27;;;;;;;2.53;1.10;;;15.80;99.90;;;;;;5072613;28;20453;-59
2022/07/10 05:52:53;;;;;;;3.57;1.30;;;15.80;99.90;;;;;;5072576;28;20448;-59
2022/07/10 05:55:19;;;;;;;5.93;1.80;;;15.90;99.90;;;;;;5072542;28;20729;-59
2022/07/10 05:57:47;;;;;;;5.10;1.53;;;15.90;99.90;;;;;;5072107;28;20574;-59
2022/07/10 06:00:14;;;;;;;3.80;1.20;;;15.90;99.90;;;;;;5072544;28;20458;-59
2022/07/10 06:02:41;;;;;;;2.70;1.40;;;16.00;99.90;;;;;;5072426;28;20483;-59
2022/07/10 06:05:08;;;;;;;5.77;1.50;;;16.00;99.90;;;;;;5072505;28;20443;-58
2022/07/10 06:07:35;;;;;;;5.43;1.53;;;16.10;99.90;;;;;;5072329;28;20479;-59
2022/07/10 06:10:02;;;;;;;5.97;1.50;;;16.20;99.90;;;;;;5072364;28;20451;-59
2022/07/10 06:12:28;;;;;;;5.03;1.37;;;16.30;99.90;;;;;;5072238;28;20999;-58
2022/07/10 06:14:56;;;;;;;3.57;1.30;;;16.30;99.90;;;;;;5072462;28;20490;-59
2022/07/10 06:17:22;;;;;;;6.80;1.20;;;16.30;99.90;;;;;;5072426;28;20804;-59
2022/07/10 06:19:49;;;;;;;5.53;1.40;;;16.30;99.90;;;;;;5072368;28;20483;-58
2022/07/10 06:22:31;;;;;;;5.47;1.80;;;16.30;99.90;;;;;;5072337;28;20451;-59
2022/07/10 06:24:58;;;;;;;3.20;1.30;;;16.30;99.90;;;;;;5072200;28;20811;-59
2022/07/10 06:27:24;;;;;;;4.20;1.20;;;16.20;99.90;;;;;;5072422;28;20964;-59
2022/07/10 06:29:51;;;;;;;2.70;1.33;;;16.20;99.90;;;;;;5075814;28;20946;-59
2022/07/10 06:32:19;;;;;;;6.47;1.50;;;16.40;99.90;;;;;;5075908;28;20447;-58
2022/07/10 06:34:45;;;;;;;1.60;1.50;;;16.50;99.90;;;;;;5075782;28;20453;-59
2022/07/10 06:37:12;;;;;;;2.93;1.30;;;16.50;99.90;;;;;;5075660;28;20879;-59
2022/07/10 06:39:38;;;;;;;3.10;1.30;;;16.50;99.90;;;;;;5075836;28;20546;-59
2022/07/10 06:42:06;;;;;;;4.90;1.57;;;16.50;99.90;;;;;;5075840;28;20792;-58
2022/07/10 06:44:32;;;;;;;3.93;1.43;;;16.50;99.90;;;;;;5075743;28;20451;-59
2022/07/10 06:49:46;;;;;;;3.60;1.10;;;16.40;99.90;;;;;;5075562;28;20442;-59
2022/07/10 06:52:13;;;;;;;6.23;1.60;;;16.40;99.90;;;;;;5075637;28;20542;-59
2022/07/10 06:54:39;;;;;;;4.00;1.47;;;16.40;99.90;;;;;;5075515;28;20447;-58
2022/07/10 06:57:06;;;;;;;3.10;1.40;;;16.50;99.90;;;;;;5075303;28;20475;-59
2022/07/10 06:59:33;;;;;;;7.50;1.53;;;16.60;99.90;;;;;;5075378;28;20547;-59
2022/07/10 07:02:00;;;;;;;5.57;1.00;;;16.60;99.90;;;;;;5075251;28;20534;-59
2022/07/10 07:04:26;;;;;;;3.47;1.20;;;16.70;99.90;;;;;;5075249;28;20558;-59
2022/07/10 07:06:55;;;;;;;5.47;1.43;;;16.90;99.90;;;;;;5075478;28;20455;-60
2022/07/10 07:09:21;;;;;;;3.63;1.30;;;17.10;99.90;;;;;;5075399;28;20479;-59
2022/07/10 07:11:48;;;;;;;5.00;1.67;;;17.30;99.90;;;;;;5075174;28;20546;-58
2022/07/10 07:14:14;;;;;;;4.60;1.30;;;17.30;99.90;;;;;;5075094;28;20542;-59
2022/07/10 07:16:43;;;;;;;2.80;1.23;;;17.40;99.90;;;;;;5075063;28;20542;-60
2022/07/10 07:19:11;;;;;;;6.47;1.77;;;17.40;99.90;;;;;;5075198;28;20458;-59
2022/07/10 07:24:23;;;;;;;4.17;1.33;;;17.20;99.90;;;;;;5074827;28;20484;-59
2022/07/10 07:26:50;;;;;;;4.37;1.30;;;17.20;99.90;;;;;;5074871;28;20546;-57
2022/07/10 07:29:17;;;;;;;4.63;1.20;;;17.10;99.90;;;;;;5074586;28;21078;-59
2022/07/10 07:31:44;;;;;;;4.13;1.40;;;17.00;99.90;;;;;;5074966;28;20439;-59
2022/07/10 07:34:11;;;;;;;2.80;1.10;;;17.20;99.90;;;;;;5074779;28;20443;-59
2022/07/10 07:36:38;;;;;;;4.10;1.70;;;17.40;99.90;;;;;;5074682;28;20536;-59
2022/07/10 07:39:04;;;;;;;4.53;1.40;;;17.60;99.90;;;;;;5073848;28;20448;-59
2022/07/10 07:41:32;;;;;;;3.37;1.30;;;17.60;99.90;;;;;;5074468;28;20452;-60
2022/07/10 07:43:59;;;;;;;5.60;1.43;;;17.60;99.90;;;;;;5074328;28;20451;-59
2022/07/10 07:46:25;;;;;;;3.00;1.53;;;17.40;99.90;;;;;;5074686;28;20458;-60
2022/07/10 07:48:51;;;;;;;8.40;1.83;;;17.30;99.90;;;;;;5074412;28;20489;-59
2022/07/10 07:51:18;;;;;;;4.00;1.43;;;17.40;99.90;;;;;;5074431;28;20447;-59
2022/07/10 07:53:45;;;;;;;5.83;1.43;;;17.50;99.90;;;;;;5074328;28;20452;-60
2022/07/10 07:56:11;;;;;;;3.77;1.20;;;17.60;99.90;;;;;;5074410;28;20475;-59
2022/07/10 07:58:39;;;;;;;3.20;1.23;;;17.50;99.90;;;;;;5074106;28;20451;-59
2022/07/10 08:01:06;;;;;;;4.17;1.20;;;17.40;99.90;;;;;;5074319;28;20451;-58
2022/07/10 08:03:32;;;;;;;3.63;1.33;;;17.40;99.90;;;;;;5074192;28;20965;-59
2022/07/10 08:05:59;;;;;;;3.70;1.70;;;17.40;99.90;;;;;;5074117;28;20788;-59
2022/07/10 08:08:25;;;;;;;8.87;1.30;;;17.40;99.90;;;;;;5073942;28;20513;-59
2022/07/10 08:10:52;;;;;;;5.47;1.30;;;17.40;99.90;;;;;;5073842;28;20447;-59
2022/07/10 08:13:18;;;;;;;5.00;1.13;;;17.60;99.90;;;;;;5073874;28;20479;-60
2022/07/10 08:15:46;;;;;;;7.00;1.70;;;17.60;99.90;;;;;;5073909;28;20538;-59
2022/07/10 08:18:13;;;;;;;3.60;1.63;;;17.80;99.90;;;;;;5073966;28;20451;-60
2022/07/10 08:20:39;;;;;;;3.83;1.53;;;18.00;99.90;;;;;;5073872;28;20456;-59
2022/07/10 08:23:06;;;;;;;3.63;1.43;;;18.30;99.90;;;;;;5073664;28;20527;-59
2022/07/10 08:25:32;;;;;;;5.60;1.67;;;18.30;99.90;;;;;;5073580;28;20879;-58
2022/07/10 08:28:01;;;;;;;5.47;1.40;;;18.30;99.90;;;;;;5073741;28;20479;-60
2022/07/10 08:30:28;;;;;;;4.13;1.30;;;18.40;99.90;;;;;;5073492;28;20450;-59
2022/07/10 08:32:56;;;;;;;4.70;1.30;;;18.40;99.90;;;;;;5073648;28;20454;-59
2022/07/10 08:35:22;;;;;;;4.67;1.80;;;18.60;99.90;;;;;;5073478;28;20458;-60
2022/07/10 08:37:49;;;;;;;3.40;1.20;;;18.70;99.90;;;;;;5073475;28;20471;-58
2022/07/10 08:40:18;;;;;;;2.67;1.30;;;18.70;99.90;;;;;;5073328;28;20491;-58
2022/07/10 08:42:45;;;;;;;3.33;1.00;;;18.80;99.90;;;;;;5073509;28;20452;-57
2022/07/10 08:45:13;;;;;;;4.97;1.83;;;18.70;99.90;;;;;;5073454;28;20935;-60
2022/07/10 08:47:41;;;;;;;5.77;1.30;;;19.00;99.90;;;;;;5073113;28;20972;-60
2022/07/10 08:50:17;;;;;;;5.10;1.50;;;19.30;99.90;;;;;;5072889;28;20494;-60
2022/07/10 08:52:50;;;;;;;2.87;1.23;;;19.60;99.90;;;;;;5073140;28;20501;-59
2022/07/10 08:55:17;;;;;;;3.00;1.47;;;19.60;99.90;;;;;;5073385;28;20455;-58
2022/07/10 08:57:44;;;;;;;4.83;1.20;;;19.40;99.90;;;;;;5073005;28;20574;-60
2022/07/10 09:00:12;;;;;;;3.27;1.00;;;19.30;99.90;;;;;;5073055;28;20443;-59
2022/07/10 09:02:38;;;;;;;4.07;1.87;;;19.20;99.90;;;;;;5073495;28;20454;-59
2022/07/10 09:05:08;;;;;;;3.97;1.40;;;19.30;99.90;;;;;;5072782;28;20454;-58
2022/07/10 09:07:37;;;;;;;3.20;1.23;;;19.30;99.90;;;;;;5072965;28;20547;-60
2022/07/10 09:10:07;;;;;;;6.57;1.23;;;19.30;99.90;;;;;;5072946;28;20533;-58
2022/07/10 09:12:53;;;;;;;8.00;1.60;;;19.30;99.90;;;;;;5073035;28;20564;-60
2022/07/10 09:15:21;;;;;;;5.30;1.20;;;19.10;99.90;;;;;;5072876;28;20450;-60
2022/07/10 09:17:53;;;;;;;4.00;1.57;;;18.90;99.90;;;;;;5072690;28;20452;-60
2022/07/10 09:20:32;;;;;;;4.00;1.10;;;18.70;99.90;;;;;;5072626;28;20951;-59
2022/07/10 09:23:09;;;;;;;3.73;1.60;;;18.60;99.90;;;;;;5072911;28;20528;-59
2022/07/10 09:25:36;;;;;;;3.50;1.30;;;18.60;99.90;;;;;;5072818;28;20447;-59
2022/07/10 09:28:06;;;;;;;2.10;1.10;;;18.50;99.90;;;;;;5072647;28;20497;-59
2022/07/10 09:30:34;;;;;;;4.23;1.47;;;18.50;99.90;;;;;;5072513;28;20964;-59
2022/07/10 09:33:29;;;;;;;3.30;1.00;;;18.60;99.90;;;;;;5072742;28;20454;-59
2022/07/10 09:36:07;;;;;;;6.00;1.53;;;18.50;99.90;;;;;;5071362;28;20477;-59
2022/07/10 09:38:52;;;;;;;3.33;1.30;;;18.60;99.90;;;;;;5072581;28;20489;-59
2022/07/10 09:41:21;;;;;;;3.03;1.30;;;18.80;99.90;;;;;;5072906;28;20447;-58
2022/07/10 09:43:49;;;;;;;5.03;1.30;;;18.70;99.90;;;;;;5072784;28;20483;-59
2022/07/10 09:46:16;;;;;;;3.60;1.23;;;18.70;99.90;;;;;;5072634;28;20447;-59
2022/07/10 09:48:42;;;;;;;6.03;1.70;;;18.80;99.90;;;;;;5072419;28;20467;-59
2022/07/10 09:51:10;;;;;;;2.63;1.23;;;19.00;99.90;;;;;;5072448;28;20478;-58
2022/07/10 09:53:40;;;;;;;3.03;1.20;;;19.10;99.90;;;;;;5072737;28;20439;-58
2022/07/10 09:56:10;;;;;;;4.00;1.50;;;19.30;99.90;;;;;;5072554;28;20479;-58
2022/07/10 09:58:37;;;;;;;2.50;1.70;;;19.40;99.90;;;;;;5072605;28;20497;-58
2022/07/10 10:01:04;;;;;;;3.73;1.50;;;19.50;99.90;;;;;;5072430;28;20449;-58
2022/07/10 10:03:34;;;;;;;5.50;1.20;;;19.50;99.90;;;;;;5074620;28;20451;-58
2022/07/10 10:06:05;;;;;;;8.80;1.53;;;19.60;99.90;;;;;;5076271;28;20926;-59
2022/07/10 10:08:38;;;;;;;6.73;1.30;;;19.70;99.90;;;;;;5076388;28;20538;-59
2022/07/10 10:11:09;;;;;;;7.93;2.50;;;19.90;99.90;;;;;;5076428;28;20452;-59
2022/07/10 10:13:36;;;;;;;4.67;1.53;;;19.90;99.90;;;;;;5076134;28;20985;-58
2022/07/10 10:16:03;;;;;;;3.90;1.20;;;20.00;99.90;;;;;;5076077;28;20542;-60
2022/07/10 10:18:30;;;;;;;5.63;1.40;;;20.00;99.90;;;;;;5076256;28;20466;-58
2022/07/10 10:20:56;;;;;;;3.30;1.40;;;20.10;99.90;;;;;;5076258;28;20447;-58
2022/07/10 10:23:24;;;;;;;3.23;1.53;;;20.30;99.90;;;;;;5075946;28;20458;-59
2022/07/10 10:25:53;;;;;;;3.40;1.33;;;20.30;99.90;;;;;;5076014;28;20954;-58
2022/07/10 10:28:24;;;;;;;4.80;1.20;;;20.50;99.90;;;;;;5075871;28;20448;-58
2022/07/10 10:30:53;;;;;;;2.40;1.40;;;20.70;99.90;;;;;;5076097;28;20486;-58
2022/07/10 10:33:46;;;;;;;4.73;1.40;;;20.70;99.90;;;;;;5076086;28;20841;-58
2022/07/10 10:36:32;;;;;;;3.53;1.30;;;20.90;99.90;;;;;;5075749;28;20833;-59
2022/07/10 10:39:02;;;;;;;5.97;1.30;;;20.90;99.90;;;;;;5075503;28;20546;-58
2022/07/10 10:41:32;;;;;;;5.50;1.73;;;20.80;99.90;;;;;;5075876;28;20478;-59
2022/07/10 10:44:23;;;;;;;3.27;1.07;;;21.00;99.90;;;;;;5075615;28;20504;-59
2022/07/10 10:47:00;;;;;;;4.87;1.30;;;21.40;99.90;;;;;;5075626;28;20459;-58
2022/07/10 10:49:28;;;;;;;2.03;1.17;;;21.10;99.90;;;;;;5075469;28;20479;-59
2022/07/10 10:51:58;;;;;;;3.47;1.27;;;20.80;99.90;;;;;;5075788;28;20548;-59
2022/07/10 10:54:25;;;;;;;4.30;1.30;;;20.70;99.90;;;;;;5075526;28;20486;-58
2022/07/10 10:57:13;;;;;;;5.73;1.47;;;20.70;99.90;;;;;;5075220;28;20475;-59
2022/07/10 10:59:46;;;;;;;4.13;1.63;;;20.80;99.90;;;;;;5075404;28;20443;-58
2022/07/10 11:02:23;;;;;;;6.03;1.60;;;21.00;99.90;;;;;;5075452;28;20465;-59
2022/07/10 11:04:50;;;;;;;3.67;1.30;;;20.80;99.90;;;;;;5075407;28;20848;-58
2022/07/10 11:07:50;;;;;;;4.90;1.77;;;20.60;99.90;;;;;;5075393;28;20563;-58
2022/07/10 11:10:30;;;;;;;5.50;1.67;;;20.70;99.90;;;;;;5074893;28;20487;-59
2022/07/10 11:13:00;;;;;;;5.30;1.50;;;20.80;99.90;;;;;;5075249;28;20447;-59
2022/07/10 11:15:29;;;;;;;4.80;1.57;;;20.80;99.90;;;;;;5073686;28;20447;-58
2022/07/10 11:17:56;;;;;;;3.63;1.00;;;20.80;99.90;;;;;;5075129;28;20479;-58
2022/07/10 11:20:23;;;;;;;6.10;1.47;;;20.70;99.90;;;;;;5074910;28;20780;-58
2022/07/10 11:23:00;;;;;;;3.00;1.10;;;20.80;99.90;;;;;;5074814;28;21039;-58
2022/07/10 11:25:41;;;;;;;3.27;1.33;;;20.90;99.90;;;;;;5075091;28;20454;-59
2022/07/10 11:28:09;;;;;;;4.73;1.63;;;21.00;99.90;;;;;;5074997;28;20538;-59
2022/07/10 11:30:48;;;;;;;2.10;1.53;;;21.20;99.90;;;;;;5074809;28;20850;-59
2022/07/10 11:33:16;;;;;;;5.83;1.00;;;21.20;99.90;;;;;;5074671;28;20458;-59
2022/07/10 11:35:45;;;;;;;2.60;0.90;;;21.10;99.90;;;;;;5074857;28;20542;-58
2022/07/10 11:38:12;;;;;;;4.73;1.40;;;21.10;99.90;;;;;;5074783;28;20538;-59
2022/07/10 11:40:39;;;;;;;4.67;1.50;;;21.20;99.90;;;;;;5074691;28;20451;-59
2022/07/10 11:43:06;;;;;;;4.97;1.40;;;21.40;99.90;;;;;;5074580;28;20454;-58
2022/07/10 11:45:36;;;;;;;3.90;1.20;;;21.10;99.90;;;;;;5074377;28;20447;-59
2022/07/10 11:48:05;;;;;;;3.97;1.57;;;21.10;99.90;;;;;;5074881;28;20448;-57
2022/07/10 11:50:36;;;;;;;2.10;1.37;;;20.80;99.90;;;;;;5074346;28;20760;-59
2022/07/10 11:53:03;;;;;;;3.83;1.50;;;20.70;99.90;;;;;;5074485;28;20443;-59
2022/07/10 11:55:31;;;;;;;2.50;1.20;;;20.80;99.90;;;;;;5074291;28;20501;-59
2022/07/10 11:57:58;;;;;;;2.87;1.60;;;20.80;99.90;;;;;;5074059;28;20475;-59
2022/07/10 12:00:26;;;;;;;5.10;1.67;;;21.00;99.90;;;;;;5074374;28;20538;-59
2022/07/10 12:02:54;;;;;;;5.20;1.67;;;21.00;99.90;;;;;;5074309;28;20448;-59
2022/07/10 12:05:38;;;;;;;5.73;1.30;;;21.20;99.90;;;;;;5073940;28;20945;-58
2022/07/10 12:08:06;;;;;;;5.83;1.20;;;21.40;99.90;;;;;;5074020;28;20451;-59
2022/07/10 12:10:34;;;;;;;2.87;1.07;;;21.40;99.90;;;;;;5073885;28;20627;-59
2022/07/10 12:13:05;;;;;;;2.37;1.10;;;21.30;99.90;;;;;;5074177;28;20458;-59
2022/07/10 12:15:33;;;;;;;3.20;1.47;;;21.20;99.90;;;;;;5074039;28;20803;-58
2022/07/10 12:18:00;;;;;;;3.70;1.50;;;21.20;99.90;;;;;;5073965;28;20451;-59
2022/07/10 12:20:27;;;;;;;4.47;1.67;;;21.00;99.90;;;;;;5073893;28;20447;-59
2022/07/10 12:22:55;;;;;;;7.17;1.37;;;21.00;99.90;;;;;;5073685;28;20447;-58
2022/07/10 12:25:22;;;;;;;5.43;1.67;;;21.40;99.90;;;;;;5073069;28;20543;-58
2022/07/10 12:27:48;;;;;;;6.40;1.60;;;21.40;99.90;;;;;;5073677;28;20447;-59
2022/07/10 12:30:15;;;;;;;6.50;1.77;;;21.30;99.90;;;;;;5073597;28;20846;-58
2022/07/10 12:32:41;;;;;;;4.57;1.43;;;21.20;99.90;;;;;;5073597;28;20453;-59
2022/07/10 12:35:14;;;;;;;5.47;1.80;;;21.40;99.90;;;;;;5073632;28;21030;-58
2022/07/10 12:37:48;;;;;;;10.10;2.00;;;21.60;99.90;;;;;;5073412;28;20454;-59
2022/07/10 12:40:34;;;;;;;4.53;1.67;;;21.60;99.90;;;;;;5073634;28;20456;-59
2022/07/10 12:43:05;;;;;;;3.03;1.70;;;21.40;99.90;;;;;;5073505;28;20451;-58
2022/07/10 12:45:32;;;;;;;4.23;1.80;;;21.30;99.90;;;;;;5073226;28;20483;-58
2022/07/10 12:47:58;;;;;;;7.50;2.17;;;21.20;99.90;;;;;;5073222;28;20451;-59
2022/07/10 12:50:26;;;;;;;3.27;1.40;;;21.10;99.90;;;;;;5073290;28;20515;-58
2022/07/10 12:53:08;;;;;;;4.70;1.40;;;21.00;99.90;;;;;;5073145;28;20961;-58
2022/07/10 12:55:41;;;;;;;2.90;1.50;;;21.00;99.90;;;;;;5073219;28;20534;-58
2022/07/10 12:58:11;;;;;;;3.07;1.13;;;21.00;99.90;;;;;;5072999;28;20467;-59
2022/07/10 13:00:44;;;;;;;2.93;1.47;;;21.00;99.90;;;;;;5073074;28;20447;-59
2022/07/10 13:03:17;;;;;;;3.27;1.33;;;21.10;99.90;;;;;;5073228;28;20450;-59